createdAt,value
2023-09-10T00:00:38.051Z,0.00
2023-09-10T00:01:38.055Z,0.00
2023-09-10T00:02:37.984Z,0.00
2023-09-10T00:03:37.985Z,0.00
2023-09-10T00:04:37.982Z,0.00
2023-09-10T00:05:37.967Z,0.00
2023-09-10T00:06:37.922Z,0.00
2023-09-10T00:07:37.965Z,0.00
2023-09-10T00:08:38.455Z,0.00
2023-09-10T00:09:37.898Z,0.00
2023-09-10T00:10:37.905Z,0.00
2023-09-10T00:11:37.907Z,0.00
2023-09-10T00:12:37.890Z,0.00
2023-09-10T00:13:37.875Z,0.00
2023-09-10T00:14:37.864Z,0.00
2023-09-10T00:15:37.871Z,0.00
2023-09-10T00:16:37.862Z,0.00
2023-09-10T00:17:37.852Z,0.00
2023-09-10T00:18:38.175Z,0.00
2023-09-10T00:19:37.851Z,0.00
2023-09-10T00:20:37.784Z,0.00
2023-09-10T00:21:37.795Z,0.00
2023-09-10T00:22:37.782Z,0.00
2023-09-10T00:23:37.736Z,0.00
2023-09-10T00:24:37.729Z,0.00
2023-09-10T00:25:37.745Z,0.00
2023-09-10T00:26:37.741Z,0.00
2023-09-10T00:27:37.702Z,0.00
2023-09-10T00:28:38.056Z,0.00
2023-09-10T00:29:37.714Z,0.00
2023-09-10T00:30:37.669Z,0.00
2023-09-10T00:31:37.724Z,0.00
2023-09-10T00:32:37.730Z,0.00
2023-09-10T00:33:37.639Z,0.00
2023-09-10T00:34:39.223Z,0.00
2023-09-10T00:35:37.623Z,0.00
2023-09-10T00:36:37.599Z,0.00
2023-09-10T00:37:37.666Z,0.00
2023-09-10T00:38:37.884Z,0.00
2023-09-10T00:39:37.599Z,0.00
2023-09-10T00:40:37.574Z,0.00
2023-09-10T00:41:37.549Z,0.00
2023-09-10T00:42:37.540Z,0.00
2023-09-10T00:43:37.619Z,0.00
2023-09-10T00:44:37.576Z,0.00
2023-09-10T00:45:37.515Z,0.00
2023-09-10T00:46:37.510Z,0.00
2023-09-10T00:47:37.485Z,0.00
2023-09-10T00:48:37.693Z,0.00
2023-09-10T00:49:37.505Z,0.00
2023-09-10T00:50:37.528Z,0.00
2023-09-10T00:51:37.434Z,0.00
2023-09-10T00:52:37.467Z,0.00
2023-09-10T00:53:37.423Z,0.00
2023-09-10T00:54:37.426Z,0.00
2023-09-10T00:55:37.465Z,0.00
2023-09-10T00:56:37.395Z,0.00
2023-09-10T00:57:37.366Z,0.00
2023-09-10T00:58:37.863Z,0.00
2023-09-10T00:59:37.378Z,0.00
2023-09-10T01:00:37.400Z,0.00
2023-09-10T01:01:37.367Z,0.00
2023-09-10T01:02:37.406Z,0.00
2023-09-10T01:03:37.332Z,0.00
2023-09-10T01:04:37.361Z,0.00
2023-09-10T01:05:37.277Z,0.00
2023-09-10T01:06:37.283Z,0.00
2023-09-10T01:07:37.277Z,0.00
2023-09-10T01:08:37.698Z,0.00
2023-09-10T01:09:37.266Z,0.00
2023-09-10T01:10:37.253Z,0.00
2023-09-10T01:11:37.227Z,0.00
2023-09-10T01:12:37.207Z,0.00
2023-09-10T01:13:37.250Z,0.00
2023-09-10T01:14:37.221Z,0.00
2023-09-10T01:15:37.168Z,0.00
2023-09-10T01:16:37.315Z,0.00
2023-09-10T01:17:37.291Z,0.00
2023-09-10T01:18:37.571Z,0.00
2023-09-10T01:19:37.209Z,0.00
2023-09-10T01:20:37.130Z,0.00
2023-09-10T01:21:37.109Z,0.00
2023-09-10T01:22:37.143Z,0.00
2023-09-10T01:23:37.082Z,0.00
2023-09-10T01:24:37.106Z,0.00
2023-09-10T01:25:37.095Z,0.00
2023-09-10T01:26:37.047Z,0.00
2023-09-10T01:27:37.052Z,0.00
2023-09-10T01:28:37.217Z,0.00
2023-09-10T01:29:37.044Z,0.00
2023-09-10T01:30:37.013Z,0.00
2023-09-10T01:31:37.013Z,0.00
2023-09-10T01:32:37.028Z,0.00
2023-09-10T01:33:37.002Z,0.00
2023-09-10T01:34:37.005Z,0.00
2023-09-10T01:35:36.951Z,0.00
2023-09-10T01:36:36.946Z,0.00
2023-09-10T01:37:36.985Z,0.00
2023-09-10T01:38:37.156Z,0.00
2023-09-10T01:39:36.973Z,0.00
2023-09-10T01:40:36.967Z,0.00
2023-09-10T01:41:36.892Z,0.00
2023-09-10T01:42:36.890Z,0.00
2023-09-10T01:43:36.886Z,0.00
2023-09-10T01:44:36.849Z,0.00
2023-09-10T01:45:36.873Z,0.00
2023-09-10T01:46:37.031Z,0.00
2023-09-10T01:47:36.878Z,0.00
2023-09-10T01:48:37.149Z,0.00
2023-09-10T01:49:36.820Z,0.00
2023-09-10T01:50:36.807Z,0.00
2023-09-10T01:51:36.817Z,0.00
2023-09-10T01:52:36.779Z,0.00
2023-09-10T01:53:36.775Z,0.00
2023-09-10T01:54:36.740Z,0.00
2023-09-10T01:55:36.741Z,0.00
2023-09-10T01:56:36.722Z,0.00
2023-09-10T01:57:36.741Z,0.00
2023-09-10T01:58:36.746Z,0.00
2023-09-10T01:59:36.697Z,0.00
2023-09-10T02:00:36.666Z,0.00
2023-09-10T02:01:36.758Z,0.00
2023-09-10T02:02:36.823Z,0.00
2023-09-10T02:03:36.798Z,0.00
2023-09-10T02:04:36.664Z,0.00
2023-09-10T02:05:36.628Z,0.00
2023-09-10T02:06:36.603Z,0.00
2023-09-10T02:07:36.656Z,0.00
2023-09-10T02:08:36.691Z,0.00
2023-09-10T02:09:36.576Z,0.00
2023-09-10T02:10:36.626Z,0.00
2023-09-10T02:11:36.560Z,0.00
2023-09-10T02:12:36.580Z,0.00
2023-09-10T02:13:36.601Z,0.00
2023-09-10T02:14:36.520Z,0.00
2023-09-10T02:15:36.502Z,0.00
2023-09-10T02:16:36.563Z,0.00
2023-09-10T02:17:36.557Z,0.00
2023-09-10T02:18:36.604Z,0.00
2023-09-10T02:19:36.500Z,0.00
2023-09-10T02:20:36.496Z,0.00
2023-09-10T02:21:36.442Z,0.00
2023-09-10T02:22:36.528Z,0.00
2023-09-10T02:23:36.415Z,0.00
2023-09-10T02:24:36.417Z,0.00
2023-09-10T02:25:39.065Z,0.00
2023-09-10T02:26:36.379Z,0.00
2023-09-10T02:27:36.370Z,0.00
2023-09-10T02:28:36.399Z,0.00
2023-09-10T02:29:36.351Z,0.00
2023-09-10T02:30:36.332Z,0.00
2023-09-10T02:31:36.394Z,0.00
2023-09-10T02:32:36.403Z,0.00
2023-09-10T02:33:36.356Z,0.00
2023-09-10T02:34:36.307Z,0.00
2023-09-10T02:35:36.290Z,0.00
2023-09-10T02:36:36.289Z,0.00
2023-09-10T02:37:36.291Z,0.00
2023-09-10T02:38:36.686Z,0.00
2023-09-10T02:39:36.259Z,0.00
2023-09-10T02:40:36.272Z,0.00
2023-09-10T02:41:36.217Z,0.00
2023-09-10T02:42:36.223Z,0.00
2023-09-10T02:43:36.230Z,0.00
2023-09-10T02:44:36.207Z,0.00
2023-09-10T02:45:36.236Z,0.00
2023-09-10T02:46:36.182Z,0.00
2023-09-10T02:47:36.155Z,0.00
2023-09-10T02:48:36.165Z,0.00
2023-09-10T02:49:36.219Z,0.00
2023-09-10T02:50:36.131Z,0.00
2023-09-10T02:51:36.117Z,0.00
2023-09-10T02:52:36.158Z,0.00
2023-09-10T02:53:36.097Z,0.00
2023-09-10T02:54:36.117Z,0.00
2023-09-10T02:55:36.092Z,0.00
2023-09-10T02:56:36.051Z,0.00
2023-09-10T02:57:36.047Z,0.00
2023-09-10T02:58:36.118Z,0.00
2023-09-10T02:59:36.052Z,0.00
2023-09-10T03:00:36.012Z,0.00
2023-09-10T03:01:36.091Z,0.00
2023-09-10T03:02:36.078Z,0.00
2023-09-10T03:03:36.145Z,0.00
2023-09-10T03:04:36.014Z,0.00
2023-09-10T03:05:35.957Z,0.00
2023-09-10T03:06:35.938Z,0.00
2023-09-10T03:07:35.949Z,0.00
2023-09-10T03:08:35.940Z,0.00
2023-09-10T03:09:35.939Z,0.00
2023-09-10T03:10:35.950Z,0.00
2023-09-10T03:11:35.887Z,0.00
2023-09-10T03:12:35.866Z,0.00
2023-09-10T03:13:35.886Z,0.00
2023-09-10T03:14:35.885Z,0.00
2023-09-10T03:15:35.886Z,0.00
2023-09-10T03:16:35.849Z,0.00
2023-09-10T03:17:35.848Z,0.00
2023-09-10T03:18:35.817Z,0.00
2023-09-10T03:19:35.814Z,0.00
2023-09-10T03:20:35.868Z,0.00
2023-09-10T03:21:35.776Z,0.00
2023-09-10T03:22:35.818Z,0.00
2023-09-10T03:23:35.761Z,0.00
2023-09-10T03:24:35.767Z,0.00
2023-09-10T03:25:35.816Z,0.00
2023-09-10T03:26:35.726Z,0.00
2023-09-10T03:27:35.718Z,0.00
2023-09-10T03:28:35.706Z,0.00
2023-09-10T03:29:35.693Z,0.00
2023-09-10T03:30:35.720Z,0.00
2023-09-10T03:31:35.858Z,0.00
2023-09-10T03:32:35.860Z,0.00
2023-09-10T03:33:35.712Z,0.00
2023-09-10T03:34:35.745Z,0.00
2023-09-10T03:35:35.643Z,0.00
2023-09-10T03:36:35.652Z,0.00
2023-09-10T03:37:35.605Z,0.00
2023-09-10T03:38:35.592Z,0.00
2023-09-10T03:39:35.587Z,0.00
2023-09-10T03:40:35.619Z,0.00
2023-09-10T03:41:35.684Z,0.00
2023-09-10T03:42:35.551Z,0.00
2023-09-10T03:43:35.544Z,0.00
2023-09-10T03:44:35.526Z,0.00
2023-09-10T03:45:35.561Z,0.00
2023-09-10T03:46:35.571Z,0.00
2023-09-10T03:47:35.594Z,0.00
2023-09-10T03:48:35.474Z,0.00
2023-09-10T03:49:35.471Z,0.00
2023-09-10T03:50:35.509Z,0.00
2023-09-10T03:51:35.462Z,0.00
2023-09-10T03:52:35.469Z,0.00
2023-09-10T03:53:35.435Z,0.00
2023-09-10T03:54:35.421Z,0.00
2023-09-10T03:55:35.446Z,0.00
2023-09-10T03:56:35.426Z,0.00
2023-09-10T03:57:35.428Z,0.00
2023-09-10T03:58:35.382Z,0.00
2023-09-10T03:59:35.372Z,0.00
2023-09-10T04:00:35.398Z,0.00
2023-09-10T04:01:35.345Z,0.00
2023-09-10T04:02:35.390Z,0.00
2023-09-10T04:03:35.356Z,0.00
2023-09-10T04:04:35.314Z,0.00
2023-09-10T04:05:35.335Z,0.00
2023-09-10T04:06:35.301Z,4.00
2023-09-10T04:07:35.320Z,4.00
2023-09-10T04:08:35.300Z,0.00
2023-09-10T04:09:35.259Z,4.00
2023-09-10T04:10:35.294Z,4.00
2023-09-10T04:11:35.251Z,4.00
2023-09-10T04:12:35.320Z,4.00
2023-09-10T04:13:35.233Z,4.00
2023-09-10T04:14:35.216Z,8.00
2023-09-10T04:15:35.231Z,4.00
2023-09-10T04:16:35.199Z,4.00
2023-09-10T04:17:35.270Z,8.00
2023-09-10T04:18:35.163Z,8.00
2023-09-10T04:19:35.154Z,8.00
2023-09-10T04:20:35.172Z,8.00
2023-09-10T04:21:35.131Z,12.00
2023-09-10T04:22:35.120Z,12.00
2023-09-10T04:23:35.121Z,16.00
2023-09-10T04:24:35.096Z,20.00
2023-09-10T04:25:35.194Z,20.00
2023-09-10T04:26:35.098Z,24.00
2023-09-10T04:27:35.071Z,24.00
2023-09-10T04:28:35.174Z,28.00
2023-09-10T04:29:35.048Z,28.00
2023-09-10T04:30:35.031Z,36.00
2023-09-10T04:31:35.063Z,36.00
2023-09-10T04:32:35.074Z,40.00
2023-09-10T04:33:35.000Z,40.00
2023-09-10T04:34:34.995Z,48.00
2023-09-10T04:35:35.016Z,52.00
2023-09-10T04:36:35.003Z,56.00
2023-09-10T04:37:34.956Z,60.00
2023-09-10T04:38:34.941Z,64.00
2023-09-10T04:39:34.931Z,68.00
2023-09-10T04:40:34.955Z,72.00
2023-09-10T04:41:34.904Z,72.00
2023-09-10T04:42:34.971Z,80.00
2023-09-10T04:43:34.886Z,84.00
2023-09-10T04:44:34.893Z,88.00
2023-09-10T04:45:34.921Z,92.00
2023-09-10T04:46:34.945Z,100.00
2023-09-10T04:47:34.894Z,104.00
2023-09-10T04:48:34.832Z,108.00
2023-09-10T04:49:34.817Z,112.00
2023-09-10T04:50:34.833Z,120.00
2023-09-10T04:51:34.799Z,124.00
2023-09-10T04:52:34.796Z,128.00
2023-09-10T04:53:34.784Z,132.00
2023-09-10T04:54:34.768Z,140.00
2023-09-10T04:55:34.789Z,144.00
2023-09-10T04:56:34.764Z,152.00
2023-09-10T04:57:34.734Z,156.00
2023-09-10T04:58:34.724Z,160.00
2023-09-10T04:59:34.718Z,168.00
2023-09-10T05:00:34.720Z,172.00
2023-09-10T05:01:34.789Z,180.00
2023-09-10T05:02:34.903Z,184.00
2023-09-10T05:03:34.732Z,192.00
2023-09-10T05:04:34.682Z,196.00
2023-09-10T05:05:34.647Z,200.00
2023-09-10T05:06:34.672Z,208.00
2023-09-10T05:07:34.637Z,212.00
2023-09-10T05:08:34.632Z,220.00
2023-09-10T05:09:34.606Z,224.00
2023-09-10T05:10:34.592Z,232.00
2023-09-10T05:11:34.589Z,236.00
2023-09-10T05:12:34.599Z,240.00
2023-09-10T05:13:34.561Z,248.00
2023-09-10T05:14:34.546Z,252.00
2023-09-10T05:15:34.541Z,260.00
2023-09-10T05:16:34.578Z,264.00
2023-09-10T05:17:34.567Z,268.00
2023-09-10T05:18:34.531Z,272.00
2023-09-10T05:19:34.959Z,280.00
2023-09-10T05:20:34.484Z,284.00
2023-09-10T05:21:34.469Z,292.00
2023-09-10T05:22:34.493Z,296.00
2023-09-10T05:23:34.450Z,300.00
2023-09-10T05:24:34.444Z,304.00
2023-09-10T05:25:34.432Z,312.00
2023-09-10T05:26:34.463Z,316.00
2023-09-10T05:27:34.438Z,320.00
2023-09-10T05:28:34.429Z,328.00
2023-09-10T05:29:34.388Z,332.00
2023-09-10T05:30:34.368Z,340.00
2023-09-10T05:31:34.377Z,344.00
2023-09-10T05:32:34.760Z,352.00
2023-09-10T05:33:34.479Z,360.00
2023-09-10T05:34:34.323Z,376.00
2023-09-10T05:35:34.324Z,372.00
2023-09-10T05:36:34.310Z,368.00
2023-09-10T05:37:34.319Z,368.00
2023-09-10T05:38:34.325Z,376.00
2023-09-10T05:39:34.281Z,380.00
2023-09-10T05:40:34.267Z,388.00
2023-09-10T05:41:34.253Z,388.00
2023-09-10T05:42:34.273Z,440.00
2023-09-10T05:43:34.292Z,444.00
2023-09-10T05:44:34.226Z,452.00
2023-09-10T05:45:34.234Z,456.00
2023-09-10T05:46:34.277Z,460.00
2023-09-10T05:47:34.227Z,468.00
2023-09-10T05:48:34.230Z,472.00
2023-09-10T05:49:34.203Z,476.00
2023-09-10T05:50:34.156Z,480.00
2023-09-10T05:51:34.146Z,484.00
2023-09-10T05:52:34.148Z,492.00
2023-09-10T05:53:34.166Z,496.00
2023-09-10T05:54:34.183Z,504.00
2023-09-10T05:55:34.095Z,508.00
2023-09-10T05:56:34.091Z,512.00
2023-09-10T05:57:34.072Z,516.00
2023-09-10T05:58:34.077Z,524.00
2023-09-10T05:59:34.091Z,532.00
2023-09-10T06:00:34.050Z,540.00
2023-09-10T06:01:34.082Z,540.00
2023-09-10T06:02:34.139Z,548.00
2023-09-10T06:03:34.096Z,556.00
2023-09-10T06:04:34.129Z,560.00
2023-09-10T06:05:34.123Z,568.00
2023-09-10T06:06:33.990Z,576.00
2023-09-10T06:07:34.015Z,580.00
2023-09-10T06:08:33.949Z,588.00
2023-09-10T06:09:33.940Z,592.00
2023-09-10T06:10:33.943Z,600.00
2023-09-10T06:11:33.934Z,604.00
2023-09-10T06:12:33.961Z,612.00
2023-09-10T06:13:33.899Z,620.00
2023-09-10T06:14:33.887Z,628.00
2023-09-10T06:15:33.877Z,636.00
2023-09-10T06:16:33.900Z,644.00
2023-09-10T06:17:33.871Z,652.00
2023-09-10T06:18:33.878Z,660.00
2023-09-10T06:19:33.828Z,668.00
2023-09-10T06:20:33.858Z,672.00
2023-09-10T06:21:33.806Z,680.00
2023-09-10T06:22:33.807Z,692.00
2023-09-10T06:23:33.817Z,696.00
2023-09-10T06:24:33.786Z,704.00
2023-09-10T06:25:33.774Z,712.00
2023-09-10T06:26:33.761Z,720.00
2023-09-10T06:27:33.776Z,724.00
2023-09-10T06:28:33.768Z,732.00
2023-09-10T06:29:33.727Z,736.00
2023-09-10T06:30:33.721Z,744.00
2023-09-10T06:31:33.730Z,752.00
2023-09-10T06:32:33.799Z,760.00
2023-09-10T06:33:33.727Z,768.00
2023-09-10T06:34:33.670Z,772.00
2023-09-10T06:35:33.660Z,780.00
2023-09-10T06:36:33.675Z,792.00
2023-09-10T06:37:33.681Z,800.00
2023-09-10T06:38:33.629Z,808.00
2023-09-10T06:39:33.628Z,820.00
2023-09-10T06:40:33.638Z,832.00
2023-09-10T06:41:33.601Z,836.00
2023-09-10T06:42:33.577Z,848.00
2023-09-10T06:43:33.605Z,852.00
2023-09-10T06:44:33.556Z,856.00
2023-09-10T06:45:33.608Z,864.00
2023-09-10T06:46:33.544Z,860.00
2023-09-10T06:47:33.575Z,876.00
2023-09-10T06:48:33.574Z,864.00
2023-09-10T06:49:33.509Z,888.00
2023-09-10T06:50:33.498Z,896.00
2023-09-10T06:51:33.516Z,900.00
2023-09-10T06:52:33.499Z,912.00
2023-09-10T06:53:33.470Z,920.00
2023-09-10T06:54:33.477Z,924.00
2023-09-10T06:55:33.442Z,932.00
2023-09-10T06:56:33.459Z,936.00
2023-09-10T06:57:33.414Z,948.00
2023-09-10T06:58:33.448Z,960.00
2023-09-10T06:59:33.405Z,972.00
2023-09-10T07:00:33.423Z,984.00
2023-09-10T07:01:33.382Z,992.00
2023-09-10T07:02:33.444Z,1004.00
2023-09-10T07:03:33.350Z,1012.00
2023-09-10T07:04:33.338Z,1020.00
2023-09-10T07:05:33.402Z,1032.00
2023-09-10T07:06:33.361Z,1040.00
2023-09-10T07:07:33.308Z,1052.00
2023-09-10T07:08:33.332Z,1064.00
2023-09-10T07:09:33.287Z,1068.00
2023-09-10T07:10:33.282Z,1080.00
2023-09-10T07:11:33.297Z,1088.00
2023-09-10T07:12:33.253Z,1100.00
2023-09-10T07:13:33.247Z,1108.00
2023-09-10T07:14:33.226Z,1108.00
2023-09-10T07:15:33.223Z,1120.00
2023-09-10T07:16:33.671Z,1120.00
2023-09-10T07:17:33.217Z,1124.00
2023-09-10T07:18:33.177Z,1132.00
2023-09-10T07:19:33.170Z,1144.00
2023-09-10T07:20:33.171Z,1144.00
2023-09-10T07:21:33.166Z,1156.00
2023-09-10T07:22:33.165Z,1160.00
2023-09-10T07:23:33.130Z,1164.00
2023-09-10T07:24:33.139Z,1168.00
2023-09-10T07:25:33.104Z,1168.00
2023-09-10T07:26:33.125Z,1176.00
2023-09-10T07:27:33.105Z,1180.00
2023-09-10T07:28:33.074Z,1184.00
2023-09-10T07:29:33.055Z,1184.00
2023-09-10T07:30:33.111Z,1188.00
2023-09-10T07:31:33.097Z,1196.00
2023-09-10T07:32:33.241Z,1200.00
2023-09-10T07:33:33.048Z,1200.00
2023-09-10T07:34:33.007Z,1200.00
2023-09-10T07:35:32.994Z,1204.00
2023-09-10T07:36:32.999Z,1204.00
2023-09-10T07:37:32.999Z,1212.00
2023-09-10T07:38:33.006Z,1220.00
2023-09-10T07:39:32.966Z,1248.00
2023-09-10T07:40:32.981Z,1240.00
2023-09-10T07:41:32.930Z,1240.00
2023-09-10T07:42:32.922Z,1244.00
2023-09-10T07:43:32.911Z,1288.00
2023-09-10T07:44:32.972Z,1264.00
2023-09-10T07:45:32.916Z,1236.00
2023-09-10T07:46:32.877Z,1248.00
2023-09-10T07:47:32.974Z,1252.00
2023-09-10T07:48:32.852Z,1260.00
2023-09-10T07:49:32.882Z,1276.00
2023-09-10T07:50:32.936Z,1292.00
2023-09-10T07:51:32.830Z,1320.00
2023-09-10T07:52:32.814Z,1340.00
2023-09-10T07:53:32.844Z,1352.00
2023-09-10T07:54:32.796Z,1372.00
2023-09-10T07:55:32.792Z,1384.00
2023-09-10T07:56:32.825Z,1384.00
2023-09-10T07:57:32.815Z,1376.00
2023-09-10T07:58:32.749Z,1368.00
2023-09-10T07:59:32.738Z,1360.00
2023-09-10T08:00:32.730Z,1372.00
2023-09-10T08:01:32.765Z,1380.00
2023-09-10T08:02:32.782Z,1396.00
2023-09-10T08:03:32.771Z,1420.00
2023-09-10T08:04:32.684Z,1420.00
2023-09-10T08:05:32.674Z,1416.00
2023-09-10T08:06:32.661Z,1404.00
2023-09-10T08:07:32.666Z,1384.00
2023-09-10T08:08:32.674Z,1352.00
2023-09-10T08:09:32.648Z,1336.00
2023-09-10T08:10:32.630Z,1340.00
2023-09-10T08:11:32.616Z,1336.00
2023-09-10T08:12:32.624Z,1360.00
2023-09-10T08:13:32.600Z,1316.00
2023-09-10T08:14:32.576Z,1316.00
2023-09-10T08:15:32.571Z,1324.00
2023-09-10T08:16:32.581Z,1316.00
2023-09-10T08:17:32.577Z,1324.00
2023-09-10T08:18:32.575Z,1312.00
2023-09-10T08:19:32.511Z,1344.00
2023-09-10T08:20:32.520Z,1332.00
2023-09-10T08:21:32.492Z,1340.00
2023-09-10T08:22:32.491Z,1364.00
2023-09-10T08:23:32.482Z,1368.00
2023-09-10T08:24:32.491Z,1436.00
2023-09-10T08:25:32.457Z,1568.00
2023-09-10T08:26:32.436Z,1564.00
2023-09-10T08:27:32.424Z,1516.00
2023-09-10T08:28:32.448Z,1568.00
2023-09-10T08:29:32.444Z,1636.00
2023-09-10T08:30:32.435Z,1672.00
2023-09-10T08:31:32.420Z,1652.00
2023-09-10T08:32:32.476Z,1592.00
2023-09-10T08:33:32.375Z,1564.00
2023-09-10T08:34:32.385Z,1620.00
2023-09-10T08:35:32.403Z,1868.00
2023-09-10T08:36:32.330Z,7832.00
2023-09-10T08:37:32.316Z,8112.00
2023-09-10T08:38:32.376Z,4524.00
2023-09-10T08:39:32.315Z,3800.00
2023-09-10T08:40:32.303Z,3092.00
2023-09-10T08:41:32.403Z,2016.00
2023-09-10T08:42:32.303Z,1760.00
2023-09-10T08:43:32.244Z,5232.00
2023-09-10T08:44:32.280Z,5252.00
2023-09-10T08:45:32.231Z,2100.00
2023-09-10T08:46:32.361Z,1712.00
2023-09-10T08:47:32.309Z,2320.00
2023-09-10T08:48:32.202Z,2324.00
2023-09-10T08:49:32.199Z,1944.00
2023-09-10T08:50:32.184Z,1684.00
2023-09-10T08:51:32.169Z,3260.00
2023-09-10T08:52:32.190Z,2800.00
2023-09-10T08:53:32.253Z,2832.00
2023-09-10T08:54:32.131Z,2292.00
2023-09-10T08:55:32.122Z,1984.00
2023-09-10T08:56:32.119Z,2128.00
2023-09-10T08:57:32.097Z,2740.00
2023-09-10T08:58:32.131Z,3476.00
2023-09-10T08:59:32.169Z,10944.00
2023-09-10T09:00:32.167Z,27456.00
2023-09-10T09:01:34.226Z,29632.00
2023-09-10T09:02:32.147Z,11024.00
2023-09-10T09:03:32.214Z,2748.00
2023-09-10T09:04:32.031Z,1680.00
2023-09-10T09:05:32.036Z,1720.00
2023-09-10T09:06:32.037Z,2040.00
2023-09-10T09:07:32.030Z,2148.00
2023-09-10T09:08:32.014Z,2308.00
2023-09-10T09:09:31.975Z,5396.00
2023-09-10T09:10:31.969Z,14496.00
2023-09-10T09:11:31.987Z,9080.00
2023-09-10T09:12:31.990Z,2904.00
2023-09-10T09:13:31.921Z,5036.00
2023-09-10T09:14:31.961Z,2012.00
2023-09-10T09:15:31.915Z,1816.00
2023-09-10T09:16:32.020Z,2404.00
2023-09-10T09:17:31.956Z,4132.00
2023-09-10T09:18:31.958Z,2440.00
2023-09-10T09:19:31.865Z,2124.00
2023-09-10T09:20:31.926Z,2072.00
2023-09-10T09:21:31.848Z,2396.00
2023-09-10T09:22:31.877Z,2480.00
2023-09-10T09:23:31.856Z,2624.00
2023-09-10T09:24:31.811Z,2820.00
2023-09-10T09:25:31.820Z,2796.00
2023-09-10T09:26:31.824Z,2580.00
2023-09-10T09:27:31.785Z,2340.00
2023-09-10T09:28:31.789Z,2852.00
2023-09-10T09:29:31.808Z,2664.00
2023-09-10T09:30:31.778Z,2288.00
2023-09-10T09:31:31.765Z,2636.00
2023-09-10T09:32:31.882Z,2808.00
2023-09-10T09:33:31.714Z,2264.00
2023-09-10T09:34:31.716Z,2124.00
2023-09-10T09:35:31.768Z,2288.00
2023-09-10T09:36:31.749Z,2436.00
2023-09-10T09:37:31.679Z,2440.00
2023-09-10T09:38:31.674Z,2596.00
2023-09-10T09:39:31.674Z,2684.00
2023-09-10T09:40:31.636Z,2676.00
2023-09-10T09:41:31.689Z,2580.00
2023-09-10T09:42:31.613Z,2544.00
2023-09-10T09:43:31.602Z,2608.00
2023-09-10T09:44:31.642Z,2608.00
2023-09-10T09:45:31.580Z,2748.00
2023-09-10T09:46:31.631Z,2952.00
2023-09-10T09:47:31.641Z,2876.00
2023-09-10T09:48:31.574Z,2708.00
2023-09-10T09:49:31.541Z,2656.00
2023-09-10T09:50:31.715Z,2848.00
2023-09-10T09:51:31.520Z,3532.00
2023-09-10T09:52:31.513Z,4776.00
2023-09-10T09:53:31.568Z,4812.00
2023-09-10T09:54:31.481Z,3552.00
2023-09-10T09:55:31.477Z,5308.00
2023-09-10T09:56:31.523Z,4052.00
2023-09-10T09:57:31.489Z,7432.00
2023-09-10T09:58:31.438Z,6972.00
2023-09-10T09:59:31.465Z,3588.00
2023-09-10T10:00:31.416Z,4064.00
2023-09-10T10:01:31.474Z,10328.00
2023-09-10T10:02:31.475Z,4748.00
2023-09-10T10:03:31.420Z,2644.00
2023-09-10T10:04:31.489Z,1524.00
2023-09-10T10:05:31.412Z,1576.00
2023-09-10T10:06:42.752Z,1872.00
2023-09-10T10:07:46.066Z,4220.00
2023-09-10T10:08:32.357Z,4300.00
2023-09-10T10:09:31.364Z,1364.00
2023-09-10T10:10:31.310Z,1900.00
2023-09-10T10:11:31.376Z,3584.00
2023-09-10T10:12:31.285Z,5084.00
2023-09-10T10:13:31.324Z,6036.00
2023-09-10T10:14:31.306Z,2224.00
2023-09-10T10:15:31.350Z,1744.00
2023-09-10T10:16:31.310Z,1744.00
2023-09-10T10:17:31.285Z,1800.00
2023-09-10T10:18:31.862Z,1808.00
2023-09-10T10:19:31.210Z,1896.00
2023-09-10T10:20:31.287Z,1868.00
2023-09-10T10:21:31.185Z,1804.00
2023-09-10T10:22:31.206Z,1696.00
2023-09-10T10:23:31.778Z,1704.00
2023-09-10T10:24:31.160Z,1704.00
2023-09-10T10:25:31.185Z,1692.00
2023-09-10T10:26:31.143Z,1696.00
2023-09-10T10:27:31.122Z,1704.00
2023-09-10T10:28:31.116Z,1720.00
2023-09-10T10:29:31.229Z,1708.00
2023-09-10T10:30:31.089Z,1696.00
2023-09-10T10:31:31.208Z,1704.00
2023-09-10T10:32:31.121Z,1740.00
2023-09-10T10:33:31.107Z,1668.00
2023-09-10T10:34:31.046Z,1704.00
2023-09-10T10:35:31.093Z,1704.00
2023-09-10T10:36:31.079Z,1716.00
2023-09-10T10:37:31.027Z,1756.00
2023-09-10T10:38:31.038Z,1840.00
2023-09-10T10:39:30.997Z,1864.00
2023-09-10T10:40:30.984Z,2860.00
2023-09-10T10:41:31.029Z,1828.00
2023-09-10T10:42:30.963Z,1712.00
2023-09-10T10:43:30.960Z,1716.00
2023-09-10T10:44:30.977Z,1728.00
2023-09-10T10:45:30.944Z,4432.00
2023-09-10T10:46:30.951Z,9200.00
2023-09-10T10:47:31.029Z,9932.00
2023-09-10T10:48:30.896Z,2548.00
2023-09-10T10:49:30.887Z,1788.00
2023-09-10T10:50:30.922Z,1796.00
2023-09-10T10:51:42.023Z,1716.00
2023-09-10T10:52:30.912Z,1720.00
2023-09-10T10:53:30.880Z,1720.00
2023-09-10T10:54:30.831Z,1664.00
2023-09-10T10:55:30.855Z,1664.00
2023-09-10T10:56:30.833Z,1660.00
2023-09-10T10:57:30.836Z,1668.00
2023-09-10T10:58:30.814Z,1796.00
2023-09-10T10:59:30.805Z,1784.00
2023-09-10T11:00:30.765Z,1788.00
2023-09-10T11:01:30.844Z,1796.00
2023-09-10T11:02:30.784Z,1796.00
2023-09-10T11:03:30.763Z,1808.00
2023-09-10T11:04:30.768Z,1816.00
2023-09-10T11:05:30.764Z,1828.00
2023-09-10T11:06:30.722Z,1832.00
2023-09-10T11:07:30.949Z,1840.00
2023-09-10T11:08:30.838Z,1844.00
2023-09-10T11:09:30.670Z,1836.00
2023-09-10T11:10:30.676Z,1844.00
2023-09-10T11:11:30.693Z,1864.00
2023-09-10T11:12:30.737Z,1860.00
2023-09-10T11:13:30.669Z,1860.00
2023-09-10T11:14:30.704Z,2208.00
2023-09-10T11:15:30.611Z,2016.00
2023-09-10T11:16:30.604Z,2568.00
2023-09-10T11:17:30.729Z,1916.00
2023-09-10T11:18:30.590Z,1904.00
2023-09-10T11:19:30.651Z,1924.00
2023-09-10T11:20:30.596Z,1916.00
2023-09-10T11:21:30.548Z,1948.00
2023-09-10T11:22:30.530Z,2004.00
2023-09-10T11:23:30.617Z,1956.00
2023-09-10T11:24:30.524Z,1916.00
2023-09-10T11:25:30.526Z,1924.00
2023-09-10T11:26:30.541Z,1940.00
2023-09-10T11:27:30.498Z,1908.00
2023-09-10T11:28:30.476Z,1912.00
2023-09-10T11:29:30.661Z,1948.00
2023-09-10T11:30:30.439Z,1920.00
2023-09-10T11:31:30.501Z,1908.00
2023-09-10T11:32:30.534Z,1884.00
2023-09-10T11:33:30.455Z,1864.00
2023-09-10T11:34:30.409Z,1852.00
2023-09-10T11:35:30.408Z,1852.00
2023-09-10T11:36:30.381Z,1832.00
2023-09-10T11:37:30.408Z,1808.00
2023-09-10T11:38:30.457Z,1540.00
2023-09-10T11:39:30.371Z,1824.00
2023-09-10T11:40:30.371Z,1800.00
2023-09-10T11:41:30.354Z,1788.00
2023-09-10T11:42:30.314Z,1764.00
2023-09-10T11:43:30.385Z,1740.00
2023-09-10T11:44:30.333Z,1728.00
2023-09-10T11:45:30.286Z,1720.00
2023-09-10T11:46:30.296Z,1700.00
2023-09-10T11:47:30.411Z,1700.00
2023-09-10T11:48:30.343Z,1684.00
2023-09-10T11:49:30.266Z,1680.00
2023-09-10T11:50:30.267Z,1652.00
2023-09-10T11:51:30.236Z,1636.00
2023-09-10T11:52:30.244Z,1636.00
2023-09-10T11:53:30.278Z,1636.00
2023-09-10T11:54:30.191Z,1636.00
2023-09-10T11:55:30.227Z,1628.00
2023-09-10T11:56:30.223Z,1516.00
2023-09-10T11:57:30.160Z,1512.00
2023-09-10T11:58:30.144Z,1516.00
2023-09-10T11:59:30.187Z,1516.00
2023-09-10T12:00:30.149Z,1500.00
2023-09-10T12:01:30.130Z,1500.00
2023-09-10T12:02:30.194Z,1496.00
2023-09-10T12:03:30.183Z,1504.00
2023-09-10T12:04:30.076Z,1492.00
2023-09-10T12:05:32.579Z,1196.00
2023-09-10T12:06:30.054Z,1220.00
2023-09-10T12:07:30.051Z,1212.00
2023-09-10T12:08:30.088Z,1224.00
2023-09-10T12:09:30.036Z,1232.00
2023-09-10T12:10:30.021Z,1236.00
2023-09-10T12:11:30.053Z,1328.00
2023-09-10T12:12:30.013Z,1636.00
2023-09-10T12:13:30.014Z,1628.00
2023-09-10T12:14:30.007Z,1632.00
2023-09-10T12:15:30.008Z,1652.00
2023-09-10T12:16:29.959Z,1632.00
2023-09-10T12:17:29.972Z,1632.00
2023-09-10T12:18:29.949Z,1644.00
2023-09-10T12:19:29.935Z,1688.00
2023-09-10T12:20:29.963Z,1776.00
2023-09-10T12:21:29.924Z,1900.00
2023-09-10T12:22:29.897Z,1984.00
2023-09-10T12:23:29.901Z,1960.00
2023-09-10T12:24:29.862Z,1864.00
2023-09-10T12:25:29.870Z,1804.00
2023-09-10T12:26:29.906Z,1864.00
2023-09-10T12:27:29.840Z,1764.00
2023-09-10T12:28:29.850Z,1660.00
2023-09-10T12:29:29.835Z,7660.00
2023-09-10T12:30:29.800Z,9924.00
2023-09-10T12:31:29.848Z,3240.00
2023-09-10T12:32:29.884Z,3860.00
2023-09-10T12:33:29.774Z,5688.00
2023-09-10T12:34:29.777Z,2544.00